createdAt,value
2017-09-25T00:00:51.826Z,99541.05
2017-09-25T00:03:21.907Z,99538.87
2017-09-25T00:05:51.342Z,99539.88
2017-09-25T00:08:20.810Z,99544.95
2017-09-25T00:10:50.540Z,99543.55
2017-09-25T00:13:19.893Z,99551.71
2017-09-25T00:15:49.414Z,99551.22
2017-09-25T00:18:19.315Z,99549.08
2017-09-25T00:20:48.869Z,99550.04
2017-09-25T00:23:18.176Z,99539.73
2017-09-25T00:25:47.775Z,99545.25
2017-09-25T00:28:17.717Z,99540.86
2017-09-25T00:30:47.402Z,99543.54
2017-09-25T00:33:17.026Z,99539.73
2017-09-25T00:35:46.797Z,99545.70
2017-09-25T00:38:16.158Z,99543.63
2017-09-25T00:40:45.926Z,99542.01
2017-09-25T00:43:15.614Z,99542.16
2017-09-25T00:45:45.126Z,99539.88
2017-09-25T00:48:14.566Z,99539.19
2017-09-25T00:50:48.081Z,99538.41
2017-09-25T00:53:22.418Z,99541.32
2017-09-25T00:55:53.157Z,99534.37
2017-09-25T00:58:22.598Z,99537.34
2017-09-25T01:01:33.572Z,99533.83
2017-09-25T01:04:10.988Z,99534.00
2017-09-25T01:06:40.715Z,99531.95
2017-09-25T01:09:10.423Z,99540.76
2017-09-25T01:11:39.916Z,99540.12
2017-09-25T01:14:09.465Z,99534.25
2017-09-25T01:16:39.258Z,99532.95
2017-09-25T01:19:08.814Z,99530.13
2017-09-25T01:21:53.195Z,99529.95
2017-09-25T01:24:22.971Z,99530.59
2017-09-25T01:26:52.457Z,99530.56
2017-09-25T01:29:21.921Z,99532.11
2017-09-25T01:31:51.996Z,99525.65
2017-09-25T01:34:21.443Z,99522.63
2017-09-25T01:36:51.082Z,99521.78
2017-09-25T01:39:20.977Z,99516.78
2017-09-25T01:41:50.667Z,99520.65
2017-09-25T01:44:19.909Z,99520.23
2017-09-25T01:46:49.143Z,99512.61
2017-09-25T01:49:18.848Z,99511.06
2017-09-25T01:51:48.215Z,99510.97
2017-09-25T01:54:18.027Z,99510.75
2017-09-25T01:56:47.441Z,99508.59
2017-09-25T01:59:17.343Z,99512.55
2017-09-25T02:01:46.519Z,99511.33
2017-09-25T02:04:16.295Z,99503.75
2017-09-25T02:06:45.986Z,99504.32
2017-09-25T02:09:15.834Z,99510.06
2017-09-25T02:11:45.327Z,99505.59
2017-09-25T02:14:14.902Z,99499.30
2017-09-25T02:16:44.404Z,99500.48
2017-09-25T02:19:13.706Z,99493.09
2017-09-25T02:21:43.434Z,99489.76
2017-09-25T02:24:13.155Z,99483.30
2017-09-25T02:26:42.659Z,99484.27
2017-09-25T02:29:12.303Z,99484.33
2017-09-25T02:31:42.022Z,99491.53
2017-09-25T02:34:11.554Z,99485.44
2017-09-25T02:36:41.058Z,99480.00
2017-09-25T02:39:10.936Z,99482.81
2017-09-25T02:41:40.391Z,99481.73
2017-09-25T02:44:10.143Z,99480.41
2017-09-25T02:46:39.604Z,99480.68
2017-09-25T02:49:09.611Z,99476.81
2017-09-25T02:51:39.006Z,99474.39
2017-09-25T02:54:08.387Z,99470.74
2017-09-25T02:56:37.820Z,99466.63
2017-09-25T02:59:09.779Z,99459.77
2017-09-25T03:01:39.376Z,99464.34
2017-09-25T03:04:08.859Z,99449.97
2017-09-25T03:06:38.352Z,99452.01
2017-09-25T03:09:08.470Z,99456.33
2017-09-25T03:11:37.972Z,99461.09
2017-09-25T03:14:07.280Z,99458.66
2017-09-25T03:16:36.920Z,99456.15
2017-09-25T03:19:06.699Z,99456.23
2017-09-25T03:21:36.115Z,99451.55
2017-09-25T03:24:05.834Z,99452.04
2017-09-25T03:26:35.844Z,99448.34
2017-09-25T03:29:05.377Z,99453.16
2017-09-25T03:31:35.044Z,99451.07
2017-09-25T03:34:05.074Z,99455.91
2017-09-25T03:36:34.624Z,99452.57
2017-09-25T03:39:04.427Z,99450.61
2017-09-25T03:41:34.322Z,99452.99
2017-09-25T03:44:03.925Z,99453.97
2017-09-25T03:46:33.344Z,99453.36
2017-09-25T03:49:02.811Z,99450.39
2017-09-25T03:51:32.581Z,99455.83
2017-09-25T03:54:02.241Z,99449.58
2017-09-25T03:56:31.836Z,99447.13
2017-09-25T03:59:01.696Z,99449.62
2017-09-25T04:01:31.640Z,99443.50
2017-09-25T04:04:01.213Z,99448.03
2017-09-25T04:06:31.006Z,99444.52
2017-09-25T04:09:00.635Z,99443.70
2017-09-25T04:11:29.826Z,99444.70
2017-09-25T04:13:59.696Z,99437.13
2017-09-25T04:16:29.138Z,99437.13
2017-09-25T04:18:58.614Z,99437.59
2017-09-25T04:21:28.290Z,99431.72
2017-09-25T04:23:57.590Z,99434.84
2017-09-25T04:26:26.959Z,99434.73
2017-09-25T04:28:59.051Z,99435.55
2017-09-25T04:31:28.666Z,99437.19
2017-09-25T04:33:58.295Z,99437.84
2017-09-25T04:36:28.124Z,99438.61
2017-09-25T04:38:57.531Z,99442.82
2017-09-25T04:41:26.801Z,99439.44
2017-09-25T04:43:56.375Z,99433.62
2017-09-25T04:46:25.895Z,99438.58
2017-09-25T04:48:55.431Z,99436.67
2017-09-25T04:51:25.419Z,99444.64
2017-09-25T04:53:54.823Z,99445.28
2017-09-25T04:56:23.999Z,99448.84
2017-09-25T04:58:53.881Z,99450.96
2017-09-25T05:01:23.194Z,99456.79
2017-09-25T05:03:52.474Z,99460.59
2017-09-25T05:06:22.136Z,99472.53
2017-09-25T05:08:51.491Z,99465.67
2017-09-25T05:11:20.727Z,99465.55
2017-09-25T05:13:50.747Z,99464.61
2017-09-25T05:16:19.963Z,99463.89
2017-09-25T05:18:49.143Z,99465.39
2017-09-25T05:21:23.516Z,99471.47
2017-09-25T05:23:52.693Z,99465.67
2017-09-25T05:26:21.905Z,99471.30
2017-09-25T05:28:51.719Z,99475.18
2017-09-25T05:31:21.022Z,99476.72
2017-09-25T05:33:50.636Z,99477.65
2017-09-25T05:36:20.507Z,99480.53
2017-09-25T05:38:49.852Z,99479.61
2017-09-25T05:41:19.051Z,99477.09
2017-09-25T05:43:48.502Z,99477.69
2017-09-25T05:46:17.680Z,99480.94
2017-09-25T05:48:46.906Z,99479.81
2017-09-25T05:51:16.368Z,99478.90
2017-09-25T05:53:45.827Z,99477.30
2017-09-25T05:56:14.964Z,99481.21
2017-09-25T05:58:44.847Z,99478.84
2017-09-25T06:01:14.171Z,99475.78
2017-09-25T06:03:43.503Z,99481.95
2017-09-25T06:06:13.412Z,99478.05
2017-09-25T06:08:42.756Z,99474.09
2017-09-25T06:11:12.147Z,99479.01
2017-09-25T06:13:41.703Z,99482.87
2017-09-25T06:16:11.012Z,99486.70
2017-09-25T06:18:40.275Z,99473.53
2017-09-25T06:21:09.783Z,99469.41
2017-09-25T06:23:38.978Z,99467.98
2017-09-25T06:26:08.143Z,99464.23
2017-09-25T06:28:37.591Z,99464.96
2017-09-25T06:31:07.073Z,99467.61
2017-09-25T06:33:36.378Z,99470.86
2017-09-25T06:36:05.960Z,99473.41
2017-09-25T06:38:35.322Z,99471.48
2017-09-25T06:41:04.579Z,99476.20
2017-09-25T06:43:34.036Z,99463.60
2017-09-25T06:46:03.303Z,99461.34
2017-09-25T06:48:32.493Z,99458.45
2017-09-25T06:51:03.006Z,99467.16
2017-09-25T06:53:32.242Z,99472.08
2017-09-25T06:56:01.663Z,99463.22
2017-09-25T06:58:31.682Z,99466.08
2017-09-25T07:01:00.948Z,99462.27
2017-09-25T07:03:30.159Z,99467.34
2017-09-25T07:05:59.736Z,99463.89
2017-09-25T07:08:28.927Z,99464.94
2017-09-25T07:10:58.100Z,99465.67
2017-09-25T07:13:27.566Z,99467.32
2017-09-25T07:15:56.790Z,99475.79
2017-09-25T07:18:26.022Z,99476.44
2017-09-25T07:20:55.601Z,99481.50
2017-09-25T07:23:24.877Z,99479.62
2017-09-25T07:25:54.075Z,99479.72
2017-09-25T07:28:23.933Z,99477.82
2017-09-25T07:30:53.256Z,99482.86
2017-09-25T07:33:22.594Z,99480.98
2017-09-25T07:35:52.603Z,99479.07
2017-09-25T07:38:22.269Z,99479.98
2017-09-25T07:40:51.875Z,99476.58
2017-09-25T07:43:21.727Z,99473.34
2017-09-25T07:45:50.926Z,99473.02
2017-09-25T07:48:20.483Z,99473.84
2017-09-25T07:50:50.916Z,99470.14
2017-09-25T07:53:20.236Z,99471.69
2017-09-25T07:55:49.423Z,99477.63
2017-09-25T07:58:19.077Z,99479.95
2017-09-25T08:00:48.415Z,99479.64
2017-09-25T08:03:18.099Z,99482.63
2017-09-25T08:05:47.883Z,99486.81
2017-09-25T08:08:17.043Z,99489.06
2017-09-25T08:10:46.578Z,99491.63
2017-09-25T08:13:16.054Z,99488.56
2017-09-25T08:15:45.343Z,99490.81
2017-09-25T08:18:28.719Z,99490.53
2017-09-25T08:20:58.746Z,99489.77
2017-09-25T08:23:28.257Z,99490.45
2017-09-25T08:25:58.159Z,99494.83
2017-09-25T08:28:28.037Z,99489.80
2017-09-25T08:30:57.323Z,99496.16
2017-09-25T08:33:26.517Z,99492.33
2017-09-25T08:35:56.175Z,99492.64
2017-09-25T08:38:25.455Z,99487.55
2017-09-25T08:40:54.931Z,99488.06
2017-09-25T08:43:24.890Z,99494.72
2017-09-25T08:45:54.769Z,99485.77
2017-09-25T08:48:24.159Z,99487.36
2017-09-25T08:50:54.067Z,99487.12
2017-09-25T08:53:23.443Z,99491.45
2017-09-25T08:55:52.623Z,99486.31
2017-09-25T08:58:22.338Z,99487.77
2017-09-25T09:00:51.639Z,99483.52
2017-09-25T09:03:20.843Z,99489.49
2017-09-25T09:05:50.293Z,99484.40
2017-09-25T09:08:28.211Z,99484.13
2017-09-25T09:10:57.411Z,99482.11
2017-09-25T09:13:26.893Z,99479.92
2017-09-25T09:15:56.172Z,99476.19
2017-09-25T09:18:25.692Z,99482.73
2017-09-25T09:20:55.635Z,99477.73
2017-09-25T09:23:25.019Z,99480.55
2017-09-25T09:25:54.476Z,99486.66
2017-09-25T09:28:24.063Z,99481.41
2017-09-25T09:30:53.704Z,99482.61
2017-09-25T09:33:23.214Z,99479.91
2017-09-25T09:35:53.031Z,99480.14
2017-09-25T09:38:22.450Z,99486.03
2017-09-25T09:40:51.891Z,99489.21
2017-09-25T09:43:21.423Z,99480.86
2017-09-25T09:45:50.671Z,99480.84
2017-09-25T09:48:19.891Z,99473.83
2017-09-25T09:50:49.550Z,99472.89
2017-09-25T09:53:18.734Z,99469.36
2017-09-25T09:55:47.895Z,99465.36
2017-09-25T09:58:17.516Z,99464.36
2017-09-25T10:00:47.052Z,99466.65
2017-09-25T10:03:16.568Z,99465.28
2017-09-25T10:05:46.066Z,99465.06
2017-09-25T10:08:15.361Z,99464.62
2017-09-25T10:10:44.665Z,99460.45
2017-09-25T10:13:14.279Z,99459.48
2017-09-25T10:15:43.450Z,99460.68
2017-09-25T10:18:12.643Z,99461.41
2017-09-25T10:20:42.096Z,99463.56
2017-09-25T10:23:11.283Z,99458.77
2017-09-25T10:25:40.607Z,99462.02
2017-09-25T10:28:10.115Z,99463.70
2017-09-25T10:30:39.357Z,99460.87
2017-09-25T10:33:08.520Z,99455.45
2017-09-25T10:35:39.152Z,99462.13
2017-09-25T10:38:08.349Z,99451.20
2017-09-25T10:40:38.854Z,99450.52
2017-09-25T10:43:08.651Z,99451.06
2017-09-25T10:45:39.755Z,99452.90
2017-09-25T10:48:09.148Z,99448.51
2017-09-25T10:50:38.868Z,99449.47
2017-09-25T10:53:08.022Z,99447.33
2017-09-25T10:55:37.322Z,99439.92
2017-09-25T10:58:07.044Z,99444.66
2017-09-25T11:00:36.323Z,99442.20
2017-09-25T11:03:05.622Z,99444.40
2017-09-25T11:05:35.184Z,99442.74
2017-09-25T11:08:04.479Z,99444.37
2017-09-25T11:10:34.095Z,99443.47
2017-09-25T11:13:03.703Z,99441.67
2017-09-25T11:15:32.864Z,99441.39
2017-09-25T11:18:02.115Z,99440.18
2017-09-25T11:20:31.547Z,99434.48
2017-09-25T11:23:00.850Z,99433.16
2017-09-25T11:25:30.063Z,99433.06
2017-09-25T11:28:01.868Z,99428.19
2017-09-25T11:30:31.080Z,99421.52
2017-09-25T11:33:02.083Z,99423.16
2017-09-25T11:35:31.508Z,99429.21
2017-09-25T11:38:05.471Z,99428.70
2017-09-25T11:40:34.704Z,99425.34
2017-09-25T11:43:04.228Z,99424.00
2017-09-25T11:45:33.387Z,99421.70
2017-09-25T11:48:02.602Z,99428.58
2017-09-25T11:50:32.068Z,99426.62
2017-09-25T11:53:01.259Z,99421.46
2017-09-25T11:55:30.475Z,99426.69
2017-09-25T11:58:03.446Z,99425.44
2017-09-25T12:00:32.713Z,99417.73
2017-09-25T12:03:06.641Z,99422.05
2017-09-25T12:05:36.225Z,99420.64
2017-09-25T12:08:05.474Z,99414.35
2017-09-25T12:10:34.691Z,99413.94
2017-09-25T12:13:04.280Z,99418.68
2017-09-25T12:15:35.274Z,99420.42
2017-09-25T12:18:04.725Z,99422.31
2017-09-25T12:20:36.675Z,99418.42
2017-09-25T12:23:05.970Z,99421.05
2017-09-25T12:25:35.191Z,99420.53
2017-09-25T12:28:04.865Z,99421.61
2017-09-25T12:30:34.055Z,99423.53
2017-09-25T12:33:03.480Z,99420.70
2017-09-25T12:35:33.023Z,99424.70
2017-09-25T12:38:02.247Z,99422.84
2017-09-25T12:40:31.402Z,99422.14
2017-09-25T12:43:00.955Z,99418.04
2017-09-25T12:45:30.544Z,99421.70
2017-09-25T12:48:01.831Z,99417.19
2017-09-25T12:50:31.274Z,99413.75
2017-09-25T12:53:02.495Z,99412.69
2017-09-25T12:55:32.202Z,99427.09
2017-09-25T12:58:01.803Z,99428.08
2017-09-25T13:00:31.011Z,99430.06
2017-09-25T13:03:00.183Z,99434.18
2017-09-25T13:05:29.635Z,99427.62
2017-09-25T13:07:58.940Z,99431.00
2017-09-25T13:10:28.370Z,99430.30
2017-09-25T13:12:58.129Z,99427.23
2017-09-25T13:15:27.440Z,99425.31
2017-09-25T13:17:56.679Z,99424.99
2017-09-25T13:20:26.124Z,99416.66
2017-09-25T13:22:55.423Z,99413.98
2017-09-25T13:25:24.563Z,99409.64
2017-09-25T13:27:53.998Z,99413.33
2017-09-25T13:30:23.162Z,99405.11
2017-09-25T13:32:52.323Z,99410.55
2017-09-25T13:35:22.027Z,99405.86
2017-09-25T13:37:51.410Z,99404.38
2017-09-25T13:40:20.726Z,99403.45
2017-09-25T13:42:50.385Z,99408.52
2017-09-25T13:45:21.027Z,99406.82
2017-09-25T13:47:50.179Z,99404.78
2017-09-25T13:50:20.988Z,99406.65
2017-09-25T13:52:50.167Z,99408.78
2017-09-25T13:55:21.260Z,99410.53
2017-09-25T13:57:50.807Z,99406.63
2017-09-25T14:02:55.776Z,99405.14
2017-09-25T14:05:25.371Z,99407.94
2017-09-25T14:07:54.552Z,99402.98
2017-09-25T14:10:23.735Z,99399.98
2017-09-25T14:12:53.224Z,99399.04
2017-09-25T14:15:22.432Z,99394.61
2017-09-25T14:17:51.922Z,99399.20
2017-09-25T14:20:22.495Z,99395.38
2017-09-25T14:22:51.758Z,99405.16
2017-09-25T14:25:22.384Z,99404.53
2017-09-25T14:27:51.908Z,99407.05
2017-09-25T14:30:22.815Z,99403.63
2017-09-25T14:32:52.471Z,99404.23
2017-09-25T14:35:22.906Z,99404.82
2017-09-25T14:37:52.260Z,99405.13
2017-09-25T14:40:24.726Z,99408.64
2017-09-25T14:42:54.146Z,99410.25
2017-09-25T14:45:23.640Z,99407.31
2017-09-25T14:47:53.580Z,99416.12
2017-09-25T14:50:23.277Z,99409.82
2017-09-25T14:52:52.593Z,99418.23
2017-09-25T14:55:26.452Z,99418.98
2017-09-25T14:57:55.992Z,99425.44
2017-09-25T15:00:25.803Z,99421.14
2017-09-25T15:02:57.250Z,99421.38
2017-09-25T15:05:26.657Z,99418.08
2017-09-25T15:07:56.028Z,99423.00
2017-09-25T15:10:25.670Z,99420.74
2017-09-25T15:12:54.927Z,99415.89
2017-09-25T15:15:25.507Z,99418.19
2017-09-25T15:17:55.672Z,99418.27
2017-09-25T15:20:25.051Z,99418.33
2017-09-25T15:22:54.245Z,99417.69
2017-09-25T15:25:27.079Z,99419.72
2017-09-25T15:27:56.332Z,99411.88
2017-09-25T15:30:25.726Z,99411.42
2017-09-25T15:32:55.299Z,99410.16
2017-09-25T15:35:26.177Z,99412.11
2017-09-25T15:37:55.337Z,99417.81
2017-09-25T15:40:25.814Z,99413.18
2017-09-25T15:42:54.983Z,99415.52
2017-09-25T15:45:27.267Z,99415.24
2017-09-25T15:47:56.824Z,99412.95
2017-09-25T15:50:27.004Z,99413.28
2017-09-25T15:52:56.527Z,99404.80
2017-09-25T15:55:26.594Z,99408.32
2017-09-25T15:57:55.803Z,99410.62
2017-09-25T16:00:27.252Z,99406.30
2017-09-25T16:02:57.251Z,99407.42
2017-09-25T16:05:27.831Z,99403.85
2017-09-25T16:07:57.190Z,99404.34
2017-09-25T16:10:27.302Z,99410.27
2017-09-25T16:12:56.631Z,99416.80
2017-09-25T16:15:27.337Z,99414.42
2017-09-25T16:17:59.027Z,99410.88
2017-09-25T16:20:28.377Z,99409.52
2017-09-25T16:22:58.566Z,99409.12
2017-09-25T16:25:28.766Z,99408.89
2017-09-25T16:27:57.978Z,99410.19
2017-09-25T16:30:28.467Z,99416.22
2017-09-25T16:32:58.045Z,99414.00
2017-09-25T16:35:28.226Z,99420.27
2017-09-25T16:37:57.598Z,99411.02
2017-09-25T16:40:51.047Z,99412.28
2017-09-25T16:43:20.475Z,99418.50
2017-09-25T16:45:52.727Z,99421.87
2017-09-25T16:48:22.246Z,99421.16
2017-09-25T16:50:54.476Z,99422.06
2017-09-25T16:53:25.593Z,99426.50
2017-09-25T16:55:55.002Z,99428.11
2017-09-25T16:58:24.426Z,99423.44
2017-09-25T17:00:54.145Z,99430.28
2017-09-25T17:03:23.404Z,99428.52
2017-09-25T17:05:52.865Z,99430.58
2017-09-25T17:08:22.379Z,99434.78
2017-09-25T17:10:51.741Z,99441.80
2017-09-25T17:13:20.972Z,99440.20
2017-09-25T17:15:50.568Z,99441.44
2017-09-25T17:18:20.387Z,99438.19
2017-09-25T17:20:49.973Z,99440.58
2017-09-25T17:23:20.458Z,99441.27
2017-09-25T17:25:49.952Z,99443.12
2017-09-25T17:28:20.006Z,99439.41
2017-09-25T17:30:49.726Z,99448.84
2017-09-25T17:33:19.091Z,99449.14
2017-09-25T17:35:48.383Z,99449.45
2017-09-25T17:38:19.268Z,99449.30
2017-09-25T17:40:49.951Z,99455.27
2017-09-25T17:43:19.136Z,99453.09
2017-09-25T17:45:48.907Z,99458.56
2017-09-25T17:48:18.534Z,99455.52
2017-09-25T17:50:48.408Z,99457.06
2017-09-25T17:53:18.611Z,99460.83
2017-09-25T17:55:48.174Z,99462.97
2017-09-25T17:58:17.400Z,99465.75
2017-09-25T18:00:47.035Z,99468.58
2017-09-25T18:03:16.711Z,99473.24
2017-09-25T18:05:46.063Z,99472.14
2017-09-25T18:08:16.152Z,99468.48
2017-09-25T18:10:46.694Z,99472.75
2017-09-25T18:13:16.162Z,99475.08
2017-09-25T18:15:45.919Z,99474.65
2017-09-25T18:18:15.698Z,99475.24
2017-09-25T18:20:45.410Z,99476.36
2017-09-25T18:23:15.313Z,99473.20
2017-09-25T18:25:44.524Z,99471.62
2017-09-25T18:28:13.815Z,99477.23
2017-09-25T18:30:43.929Z,99482.91
2017-09-25T18:33:13.267Z,99484.16
2017-09-25T18:35:42.602Z,99486.10
2017-09-25T18:38:12.074Z,99484.28
2017-09-25T18:40:42.111Z,99486.77
2017-09-25T18:43:11.695Z,99484.33
2017-09-25T18:45:42.507Z,99482.53
2017-09-25T18:48:12.160Z,99481.92
2017-09-25T18:50:41.669Z,99481.41
2017-09-25T18:53:11.829Z,99488.48
2017-09-25T18:55:41.267Z,99487.73
2017-09-25T18:58:10.528Z,99489.38
2017-09-25T19:00:40.286Z,99487.47
2017-09-25T19:03:09.707Z,99490.01
2017-09-25T19:05:39.008Z,99492.36
2017-09-25T19:08:08.594Z,99489.52
2017-09-25T19:10:37.846Z,99493.77
2017-09-25T19:13:07.175Z,99488.85
2017-09-25T19:15:36.745Z,99491.53
2017-09-25T19:18:06.893Z,99485.81
2017-09-25T19:20:36.823Z,99486.98
2017-09-25T19:23:06.758Z,99483.67
2017-09-25T19:25:37.198Z,99487.27
2017-09-25T19:28:06.727Z,99484.20
2017-09-25T19:30:39.157Z,99487.41
2017-09-25T19:33:08.462Z,99482.22
2017-09-25T19:35:37.878Z,99483.14
2017-09-25T19:38:07.510Z,99493.53
2017-09-25T19:40:37.640Z,99487.42
2017-09-25T19:43:06.842Z,99490.73
2017-09-25T19:45:37.732Z,99485.88
2017-09-25T19:48:07.218Z,99493.95
2017-09-25T19:50:38.934Z,99488.98
2017-09-25T19:53:08.762Z,99491.78
2017-09-25T19:55:39.298Z,99486.38
2017-09-25T19:58:08.679Z,99485.20
2017-09-25T20:00:38.684Z,99485.48
2017-09-25T20:03:08.115Z,99490.05
2017-09-25T20:05:38.989Z,99486.23
2017-09-25T20:08:08.659Z,99487.91
2017-09-25T20:10:41.199Z,99492.84
2017-09-25T20:13:11.330Z,99493.17
2017-09-25T20:15:41.428Z,99490.78
2017-09-25T20:18:11.683Z,99493.45
2017-09-25T20:20:41.251Z,99494.53
2017-09-25T20:23:11.159Z,99495.00
2017-09-25T20:25:41.133Z,99492.81
2017-09-25T20:28:12.206Z,99495.01
2017-09-25T20:30:41.901Z,99500.28
2017-09-25T20:33:11.496Z,99493.20
2017-09-25T20:35:41.326Z,99495.27
2017-09-25T20:38:11.362Z,99493.83
2017-09-25T20:40:40.966Z,99496.62
2017-09-25T20:43:10.539Z,99497.96
2017-09-25T20:45:41.147Z,99500.00
2017-09-25T20:48:11.036Z,99500.68
2017-09-25T20:50:40.654Z,99498.54
2017-09-25T20:53:10.854Z,99497.48
2017-09-25T20:55:41.379Z,99494.08
2017-09-25T20:58:11.706Z,99503.63
2017-09-25T21:00:42.019Z,99496.29
2017-09-25T21:03:11.642Z,99497.05
2017-09-25T21:05:42.760Z,99492.56
2017-09-25T21:08:12.475Z,99489.44
2017-09-25T21:10:43.218Z,99494.98
2017-09-25T21:13:13.203Z,99492.14
2017-09-25T21:15:43.090Z,99494.11
2017-09-25T21:18:12.433Z,99494.25
2017-09-25T21:20:42.827Z,99495.30
2017-09-25T21:23:12.734Z,99498.00
2017-09-25T21:25:42.447Z,99497.59
2017-09-25T21:28:13.052Z,99498.73
2017-09-25T21:30:42.596Z,99503.22
2017-09-25T21:33:12.286Z,99502.97
2017-09-25T21:35:42.988Z,99510.14
2017-09-25T21:38:13.690Z,99502.78
2017-09-25T21:40:42.989Z,99507.21
2017-09-25T21:43:12.268Z,99502.88
2017-09-25T21:45:43.490Z,99505.55
2017-09-25T21:48:12.694Z,99506.81
2017-09-25T21:50:45.879Z,99506.44
2017-09-25T21:53:15.060Z,99504.13
2017-09-25T21:55:44.311Z,99508.35
2017-09-25T21:58:13.906Z,99508.05
2017-09-25T22:00:44.576Z,99510.33
2017-09-25T22:03:14.112Z,99507.44
2017-09-25T22:05:43.818Z,99507.27
2017-09-25T22:08:13.411Z,99502.16
2017-09-25T22:10:44.283Z,99500.34
2017-09-25T22:13:14.123Z,99500.27
2017-09-25T22:15:46.626Z,99500.42
2017-09-25T22:18:16.083Z,99503.78
2017-09-25T22:20:47.642Z,99502.70
2017-09-25T22:23:16.912Z,99504.81
2017-09-25T22:25:47.979Z,99505.66
2017-09-25T22:28:17.453Z,99505.11
2017-09-25T22:30:46.734Z,99514.08
2017-09-25T22:33:16.041Z,99511.29
2017-09-25T22:35:45.902Z,99513.37
2017-09-25T22:38:15.665Z,99503.75
2017-09-25T22:40:46.750Z,99511.38
2017-09-25T22:43:16.531Z,99503.75
2017-09-25T22:45:45.982Z,99508.23
2017-09-25T22:48:15.620Z,99506.70
2017-09-25T22:50:45.819Z,99504.10
2017-09-25T22:53:15.504Z,99507.94
2017-09-25T22:55:45.939Z,99504.36
2017-09-25T22:58:16.026Z,99507.65
2017-09-25T23:00:45.875Z,99502.05
2017-09-25T23:03:15.924Z,99507.88
2017-09-25T23:05:46.727Z,99503.75
2017-09-25T23:08:16.625Z,99500.39
2017-09-25T23:10:46.335Z,99494.94
2017-09-25T23:13:16.611Z,99498.77
2017-09-25T23:15:46.725Z,99501.30
2017-09-25T23:18:16.109Z,99500.11
2017-09-25T23:20:49.270Z,99497.59
2017-09-25T23:23:18.448Z,99501.82
2017-09-25T23:25:47.704Z,99502.92
2017-09-25T23:28:17.299Z,99495.28
2017-09-25T23:30:47.959Z,99497.75
2017-09-25T23:33:17.367Z,99499.77
2017-09-25T23:35:48.400Z,99502.01
2017-09-25T23:38:17.539Z,99501.38
2017-09-25T23:40:48.223Z,99498.02
2017-09-25T23:43:18.087Z,99500.48
2017-09-25T23:45:48.046Z,99496.53
2017-09-25T23:48:17.198Z,99499.56
2017-09-25T23:50:49.759Z,99500.48
2017-09-25T23:53:18.945Z,99493.44
2017-09-25T23:55:48.906Z,99492.23
2017-09-25T23:58:18.923Z,99489.03
